deformed-offering

Nearby METAR Reports

 

KNUQ - Moffett Nas/Mtn, California, USA
Distance from station: N 9mi, 14km
Updated: Thu, 23-May-2019 11:56am PDT
Clear
Clear
 Wind from E
Wind: E 5 mph , 7 km/h
Temperature: 72°F , 22°C
Dew Point: 52°F , 11°C
Humidity: 50%
Barometer: 29.82 inHg , 1009.8 hPa
Clouds: Clear
Visibility: 10 miles , 16 km
2019/05/23 18:56 KNUQ 231856Z 10004KT 10SM CLR 22/11 A2982 RMK AO2 SLP099 T02220111
KSJC - San Jose, California, USA
Distance from station: NE 9mi, 14km
Updated: Thu, 23-May-2019 11:53am PDT
Mostly Cloudy
Mostly Cloudy
 Wind from SSE
Wind: SSE 9 mph , 15 km/h
Temperature: 70°F , 21°C
Dew Point: 55°F , 13°C
Humidity: 60%
Barometer: 29.82 inHg , 1009.8 hPa
Clouds: Mostly Cloudy
Visibility: 10 miles , 16 km
Cloud details: Few Clouds 3000 ft
Few Clouds 8000 ft
Mostly Cloudy 15000 ft
2019/05/23 18:53 KSJC 231853Z 15008KT 10SM FEW030 FEW080 BKN150 21/13 A2982 RMK AO2 SLP096 T02060128
 
KRHV - San Jose/Reid, California, USA
Distance from station: ENE 12mi, 19km
Updated: Thu, 23-May-2019 11:55am PDT
Mostly Cloudy
Mostly Cloudy
 Wind from SE
Wind: SE 9 mph , 15 km/h
Temperature: 68°F , 20°C
Dew Point: 52°F , 11°C
Humidity: 56%
Barometer: 29.83 inHg , 1010.2 hPa
Clouds: Mostly Cloudy
Visibility: 10 miles , 16 km
Cloud details: Few Clouds 3000 ft
Partly Cloudy 8000 ft
Mostly Cloudy 15000 ft
2019/05/23 18:55 KRHV 231855Z 14008KT 10SM FEW030 SCT080 BKN150 20/11 A2983
KPAO - Palo Alto, California, USA
Distance from station: NNW 14mi, 23km
Updated: Thu, 23-May-2019 11:47am PDT
Partly Cloudy
Partly Cloudy
 Wind from varies
Wind: varies 6 mph , 9 km/h
Temperature: 66°F , 19°C
Dew Point: 55°F , 13°C
Humidity: 68%
Barometer: 29.82 inHg , 1009.8 hPa
Clouds: Partly Cloudy
Visibility: 10 miles , 16 km
Cloud details: Partly Cloudy 20000 ft
2019/05/23 18:47 KPAO 231847Z VRB05KT 10SM SCT200 19/13 A2982
 
KSQL - San Carlos Airpo, California, USA
Distance from station: NW 21mi, 34km
Updated: Thu, 23-May-2019 12:47pm PDT
Partly Cloudy
Partly Cloudy
 Wind from W
Wind: W 10 mph , 17 km/h
Temperature: 66°F , 19°C
Dew Point: 54°F , 12°C
Humidity: 64%
Barometer: 29.83 inHg , 1010.2 hPa
Clouds: Partly Cloudy
Visibility: 10 miles , 16 km
Cloud details: Partly Cloudy 20000 ft
2019/05/23 19:47 KSQL 231947Z 26009KT 10SM SCT200 19/12 A2983
KE16 - San Martin, California, USA
Distance from station: ESE 27mi, 43km
Updated: Sun, 19-May-2019 10:45am PDT
NOT Current
Partly Cloudy
Partly Cloudy
 Wind from SE
Wind: SE 10 mph , 17 km/h
Temperature: 54°F , 12°C
Dew Point: 50°F , 10°C
Humidity: 88%
Barometer: 29.83 inHg , 1010.2 hPa
Clouds: Partly Cloudy
Visibility: 10 miles , 16 km
Cloud details: Few Clouds 4800 ft
Partly Cloudy 5500 ft
2019/05/19 17:45 KE16 191745Z AUTO 13009KT 10SM FEW048 SCT055 12/10 A2983 RMK AO2
 
KWVI - Watsonville, California, USA
Distance from station: SSE 27mi, 44km
Updated: Thu, 23-May-2019 11:53am PDT
Overcast
Overcast
 Wind from SSW
Wind: SSW 6 mph , 9 km/h
Temperature: 57°F , 14°C
Dew Point: 54°F , 12°C
Humidity: 88%
Barometer: 29.88 inHg , 1011.9 hPa
Clouds: Overcast
Visibility: 10 miles , 16 km
Cloud details: Overcast 1100 ft
2019/05/23 18:53 KWVI 231853Z AUTO 20005KT 10SM OVC011 14/12 A2988 RMK AO2 SLP119 T01440117
KHWD - Hayward, California, USA
Distance from station: N 28mi, 44km
Updated: Thu, 23-May-2019 11:54am PDT
Few Clouds
Few Clouds
 Wind from WSW
Wind: WSW 6 mph , 9 km/h
Temperature: 66°F , 19°C
Dew Point: 52°F , 11°C
Humidity: 60%
Barometer: 29.82 inHg , 1009.8 hPa
Clouds: Few Clouds
Visibility: 10 miles , 16 km
Cloud details: Few Clouds 4000 ft
Few Clouds 7500 ft
2019/05/23 18:54 KHWD 231854Z 24005KT 10SM FEW040 FEW075 19/11 A2982 RMK AO2 SLP105 T01940111
 
KSFO - San Francisco, California, USA
Distance from station: NW 30mi, 49km
Updated: Thu, 23-May-2019 11:56am PDT
Mostly Cloudy
Mostly Cloudy
 Wind from NNW
Wind: NNW 8 mph , 13 km/h
Temperature: 66°F , 19°C
Dew Point: 54°F , 12°C
Humidity: 64%
Barometer: 29.81 inHg , 1009.5 hPa
Clouds: Mostly Cloudy
Visibility: 9 miles , 14 km
Cloud details: Few Clouds 2500 ft
Mostly Cloudy 18000 ft
2019/05/23 18:56 KSFO 231856Z 34007KT 9SM FEW025 BKN180 19/12 A2981 RMK AO2 SLP094 T01940122
KHAF - Half Moon Bay, California, USA
Distance from station: WNW 31mi, 50km
Updated: Thu, 23-May-2019 12:35pm PDT
Mist, Mostly cloudy
Mist, Mostly cloudy
 Wind from SSW
Wind: SSW 6 mph , 9 km/h
Temperature: 57°F , 14°C
Dew Point: 54°F , 12°C
Humidity: 88%
Barometer: 29.88 inHg , 1011.9 hPa
Summary: Mist
Clouds: Mostly Cloudy
Visibility: 4 miles , 6 km
Cloud details: Few Clouds 900 ft
Mostly Cloudy 1300 ft
2019/05/23 19:35 KHAF 231935Z AUTO 20005KT 4SM BR FEW009 BKN013 14/12 A2988 RMK AO2
 
KOAK - Oakland, California, USA
Distance from station: NNW 31mi, 50km
Updated: Thu, 23-May-2019 11:53am PDT
Mostly Cloudy
Mostly Cloudy
 Wind from SW
Wind: SW 5 mph , 7 km/h
Temperature: 63°F , 17°C
Dew Point: 52°F , 11°C
Humidity: 68%
Barometer: 29.83 inHg , 1010.2 hPa
Clouds: Mostly Cloudy
Visibility: 10 miles , 16 km
Cloud details: Few Clouds 1500 ft
Few Clouds 9000 ft
Mostly Cloudy 20000 ft
2019/05/23 18:53 KOAK 231853Z 23004KT 10SM FEW015 FEW090 BKN200 17/11 A2983 RMK AO2 SLP102 T01720111
KLVK - Livermore, California, USA
Distance from station: NNE 31mi, 51km
Updated: Thu, 23-May-2019 11:53am PDT
Clear
Clear
 Wind from SSW
Wind: SSW 8 mph , 13 km/h
Temperature: 70°F , 21°C
Dew Point: 54°F , 12°C
Humidity: 57%
Barometer: 29.80 inHg , 1009.1 hPa
Clouds: Clear
Visibility: 9 miles , 14 km
2019/05/23 18:53 KLVK 231853Z 20007KT 9SM CLR 21/12 A2980 RMK AO2 SLP087 T02110122
 
KCVH - Hollister Muni, California, USA
Distance from station: SE 42mi, 68km
Updated: Thu, 23-May-2019 12:40pm PDT
Clear
Clear
 Wind from W
Wind: W 14 mph , 22 km/h
Temperature: 64°F , 18°C
Dew Point: 55°F , 13°C
Humidity: 73%
Barometer: 29.87 inHg , 1011.5 hPa
Clouds: Clear
Visibility: 10 miles , 16 km
2019/05/23 19:40 KCVH 231940Z AUTO 28012KT 10SM CLR 18/13 A2987 RMK A01
KSNS - Salinas, California, USA
Distance from station: SSE 48mi, 77km
Updated: Thu, 23-May-2019 11:53am PDT
Overcast
Overcast
 Wind from WSW
Wind: WSW 5 mph , 7 km/h
Temperature: 61°F , 16°C
Dew Point: 52°F , 11°C
Humidity: 72%
Barometer: 29.88 inHg , 1011.9 hPa
Clouds: Overcast
Visibility: 10 miles , 16 km
Cloud details: Overcast 2100 ft
2019/05/23 18:53 KSNS 231853Z 25004KT 10SM OVC021 16/11 A2988 RMK AO2 SLP127 T01610111
 
KMRY - Monterey, California, USA
Distance from station: SSE 49mi, 78km
Updated: Thu, 23-May-2019 11:54am PDT
Overcast
Overcast
 Wind from SSW
Wind: SSW 9 mph , 15 km/h
Temperature: 57°F , 14°C
Dew Point: 52°F , 11°C
Humidity: 82%
Barometer: 29.89 inHg , 1012.2 hPa
Clouds: Overcast
Visibility: 10 miles , 16 km
Cloud details: Overcast 1300 ft
2019/05/23 18:54 KMRY 231854Z 21008KT 10SM OVC013 14/11 A2989 RMK AO2 SLP133 T01440111
KCCR - Concord, California, USA
Distance from station: N 50mi, 81km
Updated: Thu, 23-May-2019 11:53am PDT
Clear
Clear
 Wind from S
Wind: S 8 mph , 13 km/h
Temperature: 73°F , 23°C
Dew Point: 52°F , 11°C
Humidity: 47%
Barometer: 29.79 inHg , 1008.8 hPa
Clouds: Clear
Visibility: 10 miles , 16 km
2019/05/23 18:53 KCCR 231853Z 18007KT 10SM CLR 23/11 A2979 RMK AO2 SLP073 T02280106
deformed-offering